Time;durP1;ratioP1;P1;durP2;ratioP2;P2;SDS_P1;SDS_P2;PMS_P1;PMS_P2;Temp;Humidity;BMP_temperature;BMP_pressure;BME280_temperature;BME280_humidity;BME280_pressure;Samples;Min_cycle;Max_cycle;Signal;HPM_P1;HPM_P2
2022/04/23 00:01:51;;;;;;;12.37;7.73;;;12.20;95.10;;;12.85;83.56;96782.44;5089933;28;20466;-73
2022/04/23 00:04:21;;;;;;;12.07;8.50;;;12.10;95.50;;;12.85;83.39;96780.63;5089100;28;20547;-73
2022/04/23 00:06:52;;;;;;;12.10;8.83;;;12.10;95.10;;;12.83;83.20;96777.44;5088493;28;20881;-73
2022/04/23 00:09:21;;;;;;;12.70;8.63;;;12.10;95.10;;;12.75;83.31;96780.41;5089807;28;20510;-73
2022/04/23 00:11:52;;;;;;;11.30;8.80;;;12.00;95.00;;;12.76;83.89;96775.97;5093613;28;20488;-73
2022/04/23 00:14:22;;;;;;;10.40;7.80;;;11.90;95.20;;;12.75;83.49;96777.00;5090862;28;20460;-73
2022/04/23 00:16:52;;;;;;;15.10;8.43;;;11.90;95.20;;;12.75;83.45;96775.19;5092447;28;20945;-73
2022/04/23 00:19:23;;;;;;;11.93;7.73;;;11.90;95.20;;;12.77;83.50;96773.13;5090700;28;20507;-73
2022/04/23 00:21:54;;;;;;;12.47;7.97;;;11.90;95.30;;;12.76;83.91;96781.22;5091801;28;20957;-73
2022/04/23 00:24:24;;;;;;;10.50;8.30;;;11.90;95.70;;;12.74;83.32;96780.66;5090178;28;20434;-73
2022/04/23 00:26:53;;;;;;;12.17;9.73;;;12.00;95.10;;;12.65;83.67;96774.97;5096863;28;21007;-73
2022/04/23 00:29:22;;;;;;;14.70;9.13;;;11.90;95.00;;;12.68;83.41;96785.00;5093563;28;21171;-73
2022/04/23 00:31:51;;;;;;;12.67;8.40;;;11.80;95.20;;;12.66;83.56;96778.41;5090638;28;20550;-72
2022/04/23 00:34:21;;;;;;;19.27;8.93;;;11.80;95.20;;;12.65;83.50;96774.16;5094467;28;20446;-73
2022/04/23 00:36:53;;;;;;;13.53;9.30;;;11.80;95.10;;;12.63;83.40;96776.25;5091144;28;20467;-73
2022/04/23 00:39:23;;;;;;;12.27;8.50;;;11.80;95.20;;;12.57;83.14;96777.94;5088265;28;20572;-73
2022/04/23 00:41:57;;;;;;;11.80;8.83;;;11.80;95.00;;;12.60;83.34;96787.97;5091983;28;20474;-73
2022/04/23 00:44:27;;;;;;;15.23;9.07;;;11.80;95.20;;;12.57;83.67;96777.94;5088671;28;20527;-73
2022/04/23 00:46:56;;;;;;;13.90;9.00;;;11.90;95.00;;;12.53;83.58;96772.34;5088094;28;20459;-73
2022/04/23 00:49:26;;;;;;;9.63;7.53;;;11.80;95.10;;;12.56;83.87;96771.13;5086462;28;20903;-73
2022/04/23 00:51:58;;;;;;;11.63;8.90;;;11.70;95.50;;;12.54;83.93;96781.81;5089592;28;20467;-72
2022/04/23 00:54:29;;;;;;;13.97;8.80;;;11.70;95.30;;;12.50;84.06;96778.06;5090464;28;20529;-73
2022/04/23 00:56:59;;;;;;;12.10;9.00;;;11.60;95.40;;;12.49;84.16;96779.13;5090561;28;20489;-73
2022/04/23 00:59:31;;;;;;;13.63;8.50;;;11.60;95.40;;;12.43;84.66;96771.34;5085440;28;20530;-72
2022/04/23 01:02:03;;;;;;;11.97;8.90;;;11.50;95.50;;;12.40;84.35;96775.22;5091733;28;20463;-73
2022/04/23 01:04:33;;;;;;;12.57;8.77;;;11.60;95.40;;;12.32;84.54;96778.19;5089752;28;20459;-73
2022/04/23 01:07:07;;;;;;;12.10;8.30;;;11.50;95.40;;;12.33;84.39;96769.31;5089818;28;20448;-73
2022/04/23 01:09:37;;;;;;;17.03;8.87;;;11.50;95.40;;;12.34;84.74;96775.34;5089016;28;20544;-72
2022/04/23 01:12:10;;;;;;;15.60;9.57;;;11.50;95.50;;;12.35;84.67;96775.13;5089251;28;20546;-73
2022/04/23 01:14:58;;;;;;;11.77;8.73;;;11.50;95.40;;;12.30;84.88;96776.84;5088930;28;20543;-73
2022/04/23 01:17:28;;;;;;;13.17;9.00;;;11.40;95.40;;;12.30;84.61;96771.59;5094923;28;20461;-73
2022/04/23 01:19:59;;;;;;;11.83;8.40;;;11.50;95.30;;;12.31;84.82;96774.00;5089713;28;20490;-73
2022/04/23 01:22:29;;;;;;;16.23;8.93;;;11.50;95.40;;;12.30;84.72;96776.84;5090699;28;21040;-73
2022/04/23 01:25:00;;;;;;;11.77;8.70;;;11.40;95.50;;;12.30;84.28;96772.41;5088054;28;20484;-73
2022/04/23 01:27:30;;;;;;;13.97;8.73;;;11.50;95.40;;;12.21;85.23;96771.16;5094708;28;20454;-73
2022/04/23 01:29:59;;;;;;;16.13;9.07;;;11.30;95.50;;;12.23;84.78;96771.72;5088878;28;20471;-73
2022/04/23 01:32:29;;;;;;;15.80;9.07;;;11.40;95.50;;;12.23;85.20;96774.34;5091107;28;20874;-73
2022/04/23 01:34:58;;;;;;;13.30;7.93;;;11.30;95.50;;;12.26;84.56;96763.38;5089870;28;21212;-73
2022/04/23 01:37:30;;;;;;;12.03;8.77;;;11.40;95.50;;;12.18;85.01;96763.75;5086793;28;20489;-73
2022/04/23 01:40:00;;;;;;;14.23;8.63;;;11.20;95.60;;;12.15;85.04;96773.91;5084845;28;20498;-73
2022/04/23 01:42:29;;;;;;;15.60;9.37;;;11.20;95.60;;;12.16;85.05;96768.41;5095410;28;20486;-73
2022/04/23 01:44:58;;;;;;;10.27;7.80;;;11.20;95.60;;;12.17;85.19;96761.34;5091466;28;20498;-73
2022/04/23 01:47:29;;;;;;;11.80;8.57;;;11.30;95.60;;;12.11;85.54;96763.06;5091283;28;20550;-73
2022/04/23 01:50:00;;;;;;;11.13;7.87;;;11.30;95.60;;;12.03;86.01;96755.53;5091018;28;20462;-73
2022/04/23 01:52:30;;;;;;;11.40;8.33;;;11.20;95.60;;;11.99;85.87;96767.50;5091337;28;20494;-73
2022/04/23 01:55:00;;;;;;;11.37;8.40;;;11.30;95.60;;;11.99;86.61;96760.44;5093419;28;20459;-73
2022/04/23 01:57:29;;;;;;;11.13;7.80;;;11.20;95.90;;;11.97;86.56;96757.25;5089052;28;20477;-73
2022/04/23 01:59:59;;;;;;;11.33;8.73;;;11.20;95.80;;;11.97;86.56;96761.69;5087736;28;20493;-73
2022/04/23 02:02:29;;;;;;;13.43;8.70;;;11.10;95.80;;;11.94;86.63;96773.41;5090922;28;20473;-72
2022/04/23 02:04:58;;;;;;;15.73;9.40;;;11.10;95.80;;;11.91;86.84;96773.06;5086441;28;20501;-72
2022/04/23 02:07:27;;;;;;;11.50;8.73;;;11.10;95.80;;;11.90;86.59;96766.25;5090894;28;20564;-73
2022/04/23 02:09:59;;;;;;;14.70;8.40;;;11.00;96.20;;;11.89;86.58;96765.44;5093244;28;20462;-73
2022/04/23 02:12:29;;;;;;;14.47;8.67;;;11.00;96.10;;;11.81;87.10;96759.72;5092213;28;20463;-73
2022/04/23 02:14:59;;;;;;;15.60;9.10;;;11.00;96.00;;;11.82;87.47;96758.72;5097381;28;20533;-73
2022/04/23 02:17:35;;;;;;;12.13;8.87;;;11.00;96.00;;;11.71;88.27;96762.09;5095979;28;20505;-73
2022/04/23 02:20:05;;;;;;;15.63;9.20;;;11.00;95.90;;;11.62;88.67;96764.25;5092163;28;20485;-73
2022/04/23 02:22:35;;;;;;;14.37;9.87;;;10.90;96.20;;;11.61;88.88;96763.44;5091261;28;20466;-73
2022/04/23 02:25:07;;;;;;;12.97;9.60;;;10.90;96.20;;;11.63;88.98;96760.56;5092820;28;20463;-73
2022/04/23 02:27:45;;;;;;;20.43;9.27;;;10.80;96.30;;;11.64;89.12;96762.19;5092572;28;20605;-73
2022/04/23 02:30:17;;;;;;;10.87;8.60;;;10.70;96.40;;;11.67;88.74;96756.50;5094559;28;20439;-73
2022/04/23 02:32:48;;;;;;;18.30;9.97;;;10.80;96.30;;;11.65;88.44;96755.13;5090527;28;20470;-73
2022/04/23 02:35:20;;;;;;;12.77;10.00;;;10.90;96.10;;;11.60;88.69;96756.59;5090435;28;20460;-73
2022/04/23 02:37:53;;;;;;;13.13;8.90;;;10.80;96.30;;;11.59;89.32;96760.22;5092081;28;20471;-73
2022/04/23 02:40:25;;;;;;;12.77;9.30;;;10.70;96.40;;;11.55;89.40;96761.72;5092647;28;20502;-73
2022/04/23 02:42:56;;;;;;;13.67;8.83;;;10.70;96.40;;;11.49;89.86;96762.59;5091141;28;20944;-73
2022/04/23 02:45:27;;;;;;;16.07;8.57;;;10.70;96.50;;;11.52;89.96;96756.91;5091372;28;20460;-73
2022/04/23 02:47:58;;;;;;;18.40;10.00;;;10.60;96.50;;;11.53;89.86;96758.50;5092047;28;23095;-73
2022/04/23 02:50:30;;;;;;;16.87;9.20;;;10.60;96.60;;;11.53;89.66;96766.38;5091564;28;20520;-73
2022/04/23 02:53:02;;;;;;;13.80;9.70;;;10.60;96.50;;;11.52;89.73;96764.00;5092704;28;20459;-73
2022/04/23 02:55:34;;;;;;;14.80;9.53;;;10.70;96.40;;;11.46;90.18;96762.25;5087834;28;20466;-73
2022/04/23 02:58:07;;;;;;;13.07;8.73;;;10.70;96.40;;;11.41;90.83;96757.72;5089172;28;20454;-73
2022/04/23 03:00:38;;;;;;;15.20;9.90;;;10.60;96.70;;;11.41;91.18;96757.72;5090115;28;21084;-73
2022/04/23 03:03:09;;;;;;;13.93;9.70;;;10.60;96.70;;;11.41;91.15;96752.47;5092515;28;20459;-73
2022/04/23 03:05:42;;;;;;;30.63;18.30;;;10.60;96.70;;;11.38;91.26;96758.16;5092618;28;20460;-78
2022/04/23 03:08:13;;;;;;;14.83;9.97;;;10.60;96.70;;;11.38;91.72;96758.16;5090183;28;20483;-73
2022/04/23 03:10:44;;;;;;;15.47;9.60;;;10.50;96.90;;;11.34;92.00;96757.00;5090405;28;20465;-73
2022/04/23 03:13:13;;;;;;;17.73;10.33;;;10.60;96.70;;;11.35;92.35;96758.56;5092899;28;20826;-73
2022/04/23 03:15:44;;;;;;;16.20;10.67;;;10.50;97.00;;;11.35;92.26;96758.56;5090515;28;20450;-73
2022/04/23 03:18:15;;;;;;;96.83;44.83;;;10.40;97.10;;;11.34;92.45;96757.00;5088627;28;21059;-78
2022/04/23 03:20:46;;;;;;;21.53;13.23;;;10.40;97.00;;;11.33;92.13;96765.88;5092058;28;20482;-73
2022/04/23 03:23:16;;;;;;;16.57;10.63;;;10.50;96.90;;;11.34;92.24;96764.06;5091523;28;20459;-74
2022/04/23 03:25:48;;;;;;;16.70;10.93;;;10.50;97.00;;;11.36;92.50;96754.16;5093989;28;20464;-74
2022/04/23 03:28:18;;;;;;;15.40;10.83;;;10.40;97.30;;;11.34;92.48;96764.06;5095825;28;20454;-73
2022/04/23 03:30:49;;;;;;;17.13;10.90;;;10.60;97.20;;;11.30;92.99;96761.09;5093997;28;20449;-73
2022/04/23 03:33:17;;;;;;;15.53;9.77;;;10.40;97.30;;;11.32;92.90;96766.88;5095573;28;20530;-74
2022/04/23 03:35:48;;;;;;;17.00;11.10;;;10.40;97.20;;;11.30;92.64;96765.50;5090977;28;20446;-74
2022/04/23 03:38:18;;;;;;;31.53;16.37;;;10.50;96.90;;;11.28;93.04;96757.09;5096612;28;20467;-79
2022/04/23 03:40:53;;;;;;;18.97;12.03;;;10.50;97.10;;;11.29;93.20;96762.09;5092459;28;20543;-73
2022/04/23 03:43:24;;;;;;;17.20;10.97;;;10.50;97.10;;;11.31;93.30;96761.88;5083649;28;20501;-73
2022/04/23 03:45:54;;;;;;;16.80;11.60;;;10.40;97.60;;;11.33;93.50;96765.06;5090740;28;20451;-74
2022/04/23 03:48:24;;;;;;;18.93;10.70;;;10.40;97.20;;;11.30;93.63;96766.31;5093426;28;20455;-73
2022/04/23 03:50:54;;;;;;;16.13;10.30;;;10.40;97.30;;;11.27;93.70;96766.75;5090543;28;20589;-73
2022/04/23 03:53:25;;;;;;;20.33;11.73;;;10.40;97.40;;;11.29;93.94;96762.09;5093799;28;20810;-73
2022/04/23 03:55:56;;;;;;;17.17;11.60;;;10.40;97.50;;;11.28;93.96;96763.09;5091421;28;20490;-74
2022/04/23 03:58:28;;;;;;;16.90;11.17;;;10.40;97.50;;;11.18;94.66;96757.63;5089396;28;20529;-73
2022/04/23 04:00:58;;;;;;;17.43;11.30;;;10.40;97.30;;;11.13;95.29;96757.50;5088570;28;20522;-73
2022/04/23 04:03:28;;;;;;;20.30;11.33;;;10.40;97.30;;;11.11;95.86;96751.66;5091784;28;20441;-73
2022/04/23 04:05:58;;;;;;;17.00;11.03;;;10.40;97.50;;;11.07;96.28;96753.16;5094313;28;20496;-74
2022/04/23 04:08:28;;;;;;;19.30;10.23;;;10.50;97.40;;;11.04;96.51;96762.22;5091602;28;20470;-74
2022/04/23 04:11:00;;;;;;;16.57;11.33;;;10.30;97.50;;;11.06;97.06;96756.78;5093757;28;20534;-74
2022/04/23 04:13:30;;;;;;;27.10;16.13;;;10.30;97.80;;;11.05;96.98;96752.56;5094632;28;20442;-73
2022/04/23 04:16:01;;;;;;;18.20;11.70;;;10.30;97.70;;;11.04;97.79;96759.63;5092480;28;20447;-74
2022/04/23 04:18:32;;;;;;;15.77;12.07;;;10.10;98.00;;;11.07;98.13;96758.41;5095009;28;20499;-74
2022/04/23 04:21:03;;;;;;;19.93;12.57;;;10.10;98.20;;;11.11;97.34;96756.91;5093919;28;20486;-74
2022/04/23 04:23:33;;;;;;;16.40;11.43;;;10.10;98.20;;;11.11;97.46;96751.66;5091240;28;20930;-74
2022/04/23 04:26:04;;;;;;;17.53;12.30;;;10.10;98.20;;;11.06;97.57;96762.03;5089020;28;20496;-73
2022/04/23 04:28:33;;;;;;;16.00;10.97;;;10.30;97.90;;;10.98;98.56;96754.47;5092242;28;21041;-73
2022/04/23 04:33:49;;;;;;;19.20;13.60;;;10.20;98.00;;;10.83;100.00;96754.84;5093559;28;20907;-74
2022/04/23 04:36:20;;;;;;;18.97;11.93;;;10.20;98.20;;;10.75;100.00;96757.78;5095473;28;20248;-74
2022/04/23 04:38:51;;;;;;;20.83;13.43;;;10.10;98.30;;;10.75;100.00;96763.00;5095469;28;20447;-74
2022/04/23 04:41:21;;;;;;;19.37;11.60;;;10.00;98.60;;;10.78;100.00;96752.13;5092336;28;20516;-74
2022/04/23 04:43:53;;;;;;;21.63;11.77;;;10.00;98.60;;;10.78;100.00;96751.31;5094470;28;20527;-74
2022/04/23 04:46:22;;;;;;;18.57;13.30;;;10.00;98.50;;;10.79;100.00;96748.50;5096294;28;20453;-74
2022/04/23 04:48:52;;;;;;;17.50;13.20;;;10.00;98.50;;;10.78;100.00;96761.78;5093409;28;20960;-74
2022/04/23 04:51:22;;;;;;;16.73;12.27;;;10.10;98.40;;;10.78;100.00;96756.53;5094941;28;20460;-74
2022/04/23 04:53:53;;;;;;;16.43;11.77;;;10.10;98.60;;;10.76;100.00;96759.38;5095530;28;21300;-74
2022/04/23 04:56:25;;;;;;;20.83;11.37;;;10.00;98.60;;;10.70;100.00;96755.03;5095375;28;20468;-74
2022/04/23 04:58:54;;;;;;;19.00;13.00;;;10.00;98.70;;;10.69;100.00;96761.25;5094191;28;20456;-74
2022/04/23 05:01:23;;;;;;;16.47;11.73;;;9.90;99.50;;;10.71;100.00;96766.28;5092610;28;20550;-74
2022/04/23 05:03:53;;;;;;;17.30;11.87;;;9.90;99.60;;;10.77;100.00;96765.41;5095240;28;20442;-74
2022/04/23 05:06:24;;;;;;;17.57;12.30;;;9.90;99.70;;;10.78;100.00;96759.16;5095586;28;20456;-74
2022/04/23 05:08:53;;;;;;;21.40;11.90;;;9.90;99.70;;;10.79;100.00;96774.63;5094119;28;20446;-74
2022/04/23 05:11:25;;;;;;;23.93;12.17;;;9.90;99.60;;;10.79;100.00;96771.22;5094916;28;20505;-74
2022/04/23 05:13:55;;;;;;;17.13;11.80;;;10.00;99.10;;;10.79;100.00;96774.63;5096624;28;20474;-74
2022/04/23 05:16:24;;;;;;;19.43;11.30;;;10.00;99.10;;;10.74;100.00;96776.28;5096994;28;20929;-74
2022/04/23 05:18:54;;;;;;;17.57;12.00;;;10.00;99.20;;;10.77;100.00;96781.09;5101530;28;20508;-74
2022/04/23 05:21:24;;;;;;;18.90;12.00;;;9.90;99.90;;;10.77;100.00;96775.84;5097899;28;20487;-74
2022/04/23 05:23:54;;;;;;;17.47;11.57;;;10.00;99.30;;;10.76;100.00;96785.50;5101593;28;20442;-74
2022/04/23 05:26:26;;;;;;;17.20;11.87;;;10.00;99.30;;;10.79;100.00;96784.28;5099353;28;20453;-74
2022/04/23 05:28:56;;;;;;;15.70;11.40;;;10.00;99.50;;;10.81;100.00;96774.41;5101316;28;20476;-74
2022/04/23 05:31:26;;;;;;;18.93;11.70;;;9.90;99.90;;;10.84;100.00;96777.38;5100822;28;20542;-74
2022/04/23 05:33:56;;;;;;;17.77;11.43;;;10.00;99.40;;;10.83;100.00;96781.00;5098621;28;20503;-74
2022/04/23 05:36:25;;;;;;;17.93;11.87;;;9.90;99.90;;;10.79;100.00;96777.25;5098576;28;20437;-74
2022/04/23 05:38:55;;;;;;;15.00;11.07;;;9.90;99.90;;;10.85;100.00;96778.19;5100327;28;20446;-74
2022/04/23 05:41:27;;;;;;;15.90;10.80;;;9.90;99.90;;;10.88;100.00;96782.97;5097468;28;20484;-73
2022/04/23 05:43:56;;;;;;;15.27;11.60;;;10.00;99.80;;;10.92;100.00;96790.16;5100724;28;20529;-74
2022/04/23 05:46:25;;;;;;;16.20;11.73;;;10.20;99.70;;;10.93;100.00;96785.72;5100312;28;20503;-74
2022/04/23 05:48:57;;;;;;;21.23;11.23;;;10.20;99.60;;;10.92;100.00;96784.13;5095850;28;20973;-74
2022/04/23 05:51:27;;;;;;;16.90;11.20;;;10.10;99.80;;;11.00;100.00;96786.44;5100954;28;20450;-74
2022/04/23 05:53:58;;;;;;;14.23;10.80;;;10.20;99.90;;;11.01;100.00;96788.03;5098888;28;20451;-74
2022/04/23 05:56:34;;;;;;;21.33;12.23;;;10.30;99.90;;;11.04;100.00;96792.81;5098248;28;20503;-74
2022/04/23 05:59:04;;;;;;;18.43;12.07;;;10.20;99.90;;;11.09;100.00;96791.16;5096885;28;20454;-74
2022/04/23 06:01:35;;;;;;;16.93;11.03;;;10.20;99.90;;;11.10;100.00;96797.19;5090876;28;20906;-74
2022/04/23 06:04:06;;;;;;;16.70;11.37;;;10.20;99.90;;;11.15;100.00;96799.13;5090241;28;20498;-74
2022/04/23 06:06:36;;;;;;;13.63;9.40;;;10.40;99.90;;;11.10;100.00;96797.19;5090407;28;20448;-74
2022/04/23 06:09:07;;;;;;;14.30;9.87;;;10.40;99.90;;;11.15;100.00;96796.50;5090459;28;20430;-74
2022/04/23 06:11:38;;;;;;;16.03;10.90;;;10.40;99.90;;;11.21;100.00;96798.25;5092298;28;20443;-74
2022/04/23 06:14:07;;;;;;;18.07;12.90;;;10.40;99.90;;;11.24;100.00;96801.22;5092620;28;20459;-74
2022/04/23 06:16:38;;;;;;;16.40;10.17;;;10.50;99.90;;;11.22;100.00;96792.78;5093205;28;20454;-74
2022/04/23 06:19:07;;;;;;;13.40;9.70;;;10.50;99.90;;;11.28;100.00;96799.75;5093248;28;20439;-74
2022/04/23 06:21:37;;;;;;;16.80;10.60;;;10.60;99.90;;;11.31;100.00;96794.09;5099401;28;20989;-74
2022/04/23 06:24:08;;;;;;;17.43;10.10;;;10.60;99.90;;;11.28;100.00;96788.50;5099500;28;20949;-74
2022/04/23 06:26:38;;;;;;;13.30;10.70;;;10.60;99.90;;;11.30;100.00;96796.91;5098674;28;20448;-74
2022/04/23 06:29:08;;;;;;;12.43;9.30;;;10.60;99.90;;;11.31;100.00;96803.75;5096288;28;20446;-74
2022/04/23 06:31:39;;;;;;;16.20;10.60;;;10.60;99.90;;;11.26;100.00;96795.75;5097268;28;20533;-74
2022/04/23 06:34:10;;;;;;;16.57;10.70;;;10.60;99.90;;;11.32;100.00;96800.91;5098304;28;20446;-75
2022/04/23 06:36:40;;;;;;;15.97;10.27;;;10.70;99.90;;;11.38;100.00;96797.41;5098557;28;20830;-74
2022/04/23 06:39:11;;;;;;;16.53;10.43;;;10.80;99.90;;;11.44;100.00;96803.56;5093523;28;20540;-74
2022/04/23 06:41:40;;;;;;;16.70;11.20;;;10.90;99.90;;;11.46;100.00;96807.56;5095714;28;20886;-74
2022/04/23 06:44:11;;;;;;;14.90;10.00;;;10.90;99.90;;;11.53;100.00;96815.31;5100145;28;20451;-74
2022/04/23 06:46:41;;;;;;;14.27;9.93;;;10.90;99.90;;;11.50;100.00;96805.28;5097579;28;20849;-74
2022/04/23 06:49:11;;;;;;;14.73;9.73;;;10.90;99.90;;;11.58;100.00;96818.88;5100279;28;20435;-74
2022/04/23 06:51:40;;;;;;;13.40;9.43;;;10.90;99.90;;;11.65;100.00;96823.22;5097893;28;20451;-74
2022/04/23 06:54:10;;;;;;;14.97;10.47;;;11.00;99.90;;;11.74;100.00;96822.69;5099627;28;20450;-74
2022/04/23 06:56:41;;;;;;;14.00;10.07;;;11.10;99.90;;;11.84;100.00;96815.06;5098771;28;20508;-74
2022/04/23 06:59:12;;;;;;;15.07;9.67;;;11.20;99.90;;;11.89;100.00;96817.03;5098047;28;20445;-74
2022/04/23 07:01:42;;;;;;;16.17;10.10;;;11.30;99.90;;;11.93;100.00;96821.59;5097467;28;20440;-74
2022/04/23 07:04:13;;;;;;;12.50;8.90;;;11.30;99.90;;;12.00;100.00;96822.31;5097445;28;20482;-74
2022/04/23 07:06:44;;;;;;;15.67;9.90;;;11.40;99.90;;;12.04;100.00;96820.78;5097781;28;20439;-74
2022/04/23 07:09:13;;;;;;;15.80;9.23;;;11.50;99.80;;;12.04;100.00;96815.56;5097612;28;20540;-74
2022/04/23 07:11:45;;;;;;;11.50;9.20;;;11.50;99.70;;;12.14;100.00;96812.41;5097644;28;20441;-74
2022/04/23 07:14:15;;;;;;;15.63;9.83;;;11.50;99.80;;;12.23;100.00;96818.88;5094692;28;20454;-74
2022/04/23 07:16:44;;;;;;;13.80;9.30;;;11.60;99.70;;;12.21;100.00;96813.09;5098076;28;20447;-74
2022/04/23 07:19:13;;;;;;;14.90;9.93;;;11.70;99.60;;;12.23;100.00;96813.66;5092802;28;20443;-74
2022/04/23 07:21:43;;;;;;;13.43;10.27;;;11.70;99.80;;;12.26;100.00;96813.19;5098607;28;20454;-74
2022/04/23 07:24:20;;;;;;;12.13;9.03;;;11.70;99.70;;;12.29;100.00;96812.72;5094985;28;20448;-74
2022/04/23 07:26:51;;;;;;;13.60;10.33;;;11.70;99.50;;;12.33;100.00;96808.63;5098596;28;20443;-75
2022/04/23 07:29:21;;;;;;;12.40;9.53;;;11.80;99.50;;;12.31;100.00;96805.44;5098209;28;20518;-74
2022/04/23 07:31:51;;;;;;;16.70;9.37;;;11.70;99.50;;;12.34;100.00;96810.22;5097187;28;20447;-74
2022/04/23 07:39:56;;;;;;;11.77;9.23;;;11.80;99.60;;;12.31;100.00;96784.47;5098484;28;20470;-74
2022/04/23 07:42:28;;;;;;;11.93;8.70;;;11.70;99.60;;;12.39;100.00;96786.75;5097349;28;20489;-75
2022/04/23 07:44:57;;;;;;;13.70;9.53;;;11.70;99.80;;;12.46;100.00;96789.25;5096296;28;20569;-74
2022/04/23 07:47:28;;;;;;;11.33;8.57;;;11.80;99.80;;;12.55;100.00;96793.13;5097763;28;20458;-74
2022/04/23 07:49:58;;;;;;;13.00;9.37;;;11.90;99.70;;;12.65;100.00;96789.91;5096531;28;20482;-74
2022/04/23 07:52:29;;;;;;;11.47;8.60;;;12.00;99.80;;;12.67;100.00;96793.13;5095458;28;20497;-75
2022/04/23 07:54:58;;;;;;;12.80;9.17;;;12.10;99.70;;;12.67;100.00;96796.50;5098868;28;20518;-74
2022/04/23 07:57:31;;;;;;;10.70;8.57;;;12.00;99.50;;;12.72;100.00;96791.38;5096610;28;20451;-74
2022/04/23 08:00:01;;;;;;;12.23;8.43;;;12.10;99.60;;;12.78;100.00;96798.31;5099235;28;20512;-74
2022/04/23 08:02:31;;;;;;;11.60;9.03;;;12.10;99.50;;;12.80;100.00;96791.03;5095095;28;20488;-74
2022/04/23 08:05:00;;;;;;;14.93;9.97;;;12.20;99.40;;;12.78;100.00;96800.13;5094687;28;20450;-74
2022/04/23 08:07:30;;;;;;;11.60;8.73;;;12.10;99.30;;;12.78;100.00;96798.31;5095000;28;20479;-74
2022/04/23 08:10:01;;;;;;;12.23;8.60;;;12.20;99.40;;;12.86;100.00;96799.78;5095604;28;20439;-75
2022/04/23 08:12:34;;;;;;;10.83;7.60;;;12.30;99.60;;;12.93;100.00;96797.84;5096822;28;20790;-74
2022/04/23 08:15:06;;;;;;;11.00;8.17;;;12.30;99.40;;;12.99;100.00;96795.06;5095630;28;21059;-74
2022/04/23 08:17:37;;;;;;;11.50;7.53;;;12.40;99.40;;;13.09;100.00;96781.38;5097945;28;20440;-74
2022/04/23 08:20:11;;;;;;;10.83;7.70;;;12.50;99.50;;;13.17;100.00;96773.13;5094765;28;20464;-74
2022/04/23 08:22:41;;;;;;;15.30;9.90;;;12.60;99.20;;;13.25;100.00;96771.97;5090809;28;20837;-74
2022/04/23 08:25:11;;;;;;;24.20;14.53;;;12.70;99.10;;;13.31;100.00;96769.19;5090400;28;20432;-75
2022/04/23 08:27:54;;;;;;;15.10;8.23;;;12.70;99.00;;;13.37;100.00;96775.31;5091735;28;20530;-74
2022/04/23 08:33:09;;;;;;;10.43;7.60;;;12.80;98.90;;;13.32;99.71;96775.25;5091754;28;20459;-74
2022/04/23 08:35:41;;;;;;;11.30;7.83;;;12.70;98.70;;;13.37;99.97;96783.19;5091995;28;20950;-74
2022/04/23 08:38:10;;;;;;;11.33;8.00;;;12.80;98.90;;;13.40;100.00;96780.91;5091465;28;20553;-75
2022/04/23 08:40:44;;;;;;;12.30;8.20;;;12.80;98.90;;;13.51;100.00;96785.31;5091405;28;20454;-74
2022/04/23 08:43:14;;;;;;;10.33;7.40;;;12.90;99.00;;;13.58;99.45;96790.41;5092316;28;20477;-74
2022/04/23 08:45:43;;;;;;;12.47;7.30;;;13.00;98.70;;;13.66;98.39;96792.66;5093171;28;20448;-75
2022/04/23 08:48:14;;;;;;;9.50;7.50;;;13.10;98.70;;;13.71;97.97;96786.69;5092337;28;21251;-74
2022/04/23 08:50:50;;;;;;;12.33;6.87;;;13.10;98.60;;;13.76;97.72;96786.75;5093288;28;20440;-74
2022/04/23 08:53:28;;;;;;;9.60;7.17;;;13.20;98.60;;;13.83;97.38;96787.41;5091747;28;20473;-74
2022/04/23 08:56:02;;;;;;;10.00;6.83;;;13.20;98.50;;;13.86;96.91;96793.00;5093783;28;20450;-75
2022/04/23 08:58:34;;;;;;;9.50;7.23;;;13.20;98.40;;;13.88;96.65;96790.13;5092668;28;20462;-74
2022/04/23 09:01:05;;;;;;;7.80;6.20;;;13.30;98.40;;;13.91;95.96;96787.03;5094478;28;20451;-74
2022/04/23 09:03:34;;;;;;;12.60;6.97;;;13.30;98.30;;;13.92;95.82;96791.22;5095370;28;20542;-74
2022/04/23 09:06:05;;;;;;;10.00;7.00;;;13.30;98.30;;;13.92;95.86;96785.97;5095618;28;20450;-74
2022/04/23 09:08:34;;;;;;;8.90;6.50;;;13.30;98.20;;;13.95;95.87;96785.50;5095699;28;20467;-74
2022/04/23 09:11:03;;;;;;;10.50;6.60;;;13.40;98.30;;;13.98;95.80;96780.56;5096109;28;20447;-75
2022/04/23 09:13:35;;;;;;;12.10;7.20;;;13.40;98.20;;;14.00;95.76;96777.69;5094520;28;20734;-74
2022/04/23 09:24:47;;;;;;;7.83;6.30;;;13.60;98.40;;;14.21;95.40;96776.97;5069356;28;20487;-74
2022/04/23 09:27:17;;;;;;;6.90;5.93;;;13.60;98.30;;;14.25;95.02;96772.03;5092745;28;20983;-74
2022/04/23 09:29:59;;;;;;;7.30;5.90;;;13.70;98.20;;;14.30;93.84;96778.13;5093558;28;20443;-74
2022/04/23 09:32:29;;;;;;;7.10;6.03;;;13.80;97.90;;;14.33;93.51;96774.25;5096888;28;20447;-74
2022/04/23 09:35:10;;;;;;;8.70;6.50;;;13.80;97.90;;;14.40;92.90;96780.16;5097467;28;20447;-74
2022/04/23 09:40:29;;;;;;;9.10;5.40;;;13.90;97.60;;;14.54;91.86;96779.56;5094895;28;20531;-74
2022/04/23 09:43:02;;;;;;;8.73;5.93;;;14.00;97.60;;;14.60;91.38;96777.81;5096517;28;20467;-74
2022/04/23 09:45:39;;;;;;;9.43;5.70;;;14.10;97.50;;;14.67;90.70;96777.63;5096413;28;20450;-74
2022/04/23 09:48:20;;;;;;;6.87;5.03;;;14.10;97.40;;;14.73;89.87;96784.53;5094830;28;20796;-74
2022/04/23 09:50:49;;;;;;;13.97;5.43;;;14.20;97.30;;;14.74;89.91;96780.88;5095058;28;20466;-74
2022/04/23 09:53:20;;;;;;;6.20;5.20;;;14.20;97.20;;;14.74;89.24;96786.94;5092502;28;20488;-74
2022/04/23 09:55:50;;;;;;;8.17;4.80;;;14.20;97.10;;;14.79;89.59;96788.81;5095947;28;20529;-75
2022/04/23 09:58:19;;;;;;;5.60;4.40;;;14.20;97.20;;;14.80;89.27;96785.94;5094330;28;21001;-75
2022/04/23 10:00:49;;;;;;;5.47;4.70;;;14.20;97.10;;;14.84;89.06;96791.53;5090475;28;20460;-74
2022/04/23 10:03:21;;;;;;;8.07;5.03;;;14.30;97.10;;;14.90;89.26;96787.91;5093091;28;20454;-74
2022/04/23 10:05:51;;;;;;;6.47;4.87;;;14.40;97.20;;;14.89;88.96;96783.69;5093984;28;20948;-75
2022/04/23 10:08:26;;;;;;;6.83;5.43;;;14.40;97.10;;;14.94;89.01;96774.00;5092248;28;20470;-74
2022/04/23 10:11:01;;;;;;;4.37;3.93;;;14.40;97.10;;;15.03;89.16;96777.00;5092732;28;20965;-75
2022/04/23 10:13:31;;;;;;;7.33;4.50;;;14.40;97.20;;;15.10;87.71;96778.41;5092403;28;21134;-75
2022/04/23 10:16:03;;;;;;;8.30;5.03;;;14.50;96.90;;;15.11;88.12;96779.19;5091503;28;20451;-74
2022/04/23 10:18:38;;;;;;;6.50;4.53;;;14.60;96.90;;;15.13;88.05;96777.13;5091028;28;20479;-74
2022/04/23 10:21:14;;;;;;;4.77;4.00;;;14.60;97.00;;;15.15;87.92;96777.66;5096850;28;20499;-75
2022/04/23 10:23:58;;;;;;;5.13;4.07;;;14.60;97.00;;;15.24;87.65;96780.69;5098383;28;20930;-75
2022/04/23 10:26:46;;;;;;;5.23;4.17;;;14.70;96.90;;;15.28;86.92;96764.09;5099741;28;20856;-74
2022/04/23 10:29:21;;;;;;;4.80;3.73;;;14.80;96.80;;;15.33;86.82;96772.06;5096473;28;20991;-74
2022/04/23 10:32:22;;;;;;;5.43;3.30;;;14.80;96.70;;;15.33;85.30;96776.53;5099218;28;20447;-75
2022/04/23 10:34:53;;;;;;;4.17;3.73;;;14.80;96.40;;;15.28;86.48;96774.66;5100532;28;20496;-74
2022/04/23 10:37:25;;;;;;;4.47;3.80;;;14.80;96.70;;;15.33;86.56;96771.28;5100610;28;20455;-74
2022/04/23 10:40:17;;;;;;;6.20;3.40;;;14.80;96.60;;;15.37;86.08;96773.19;5098920;28;20798;-75
2022/04/23 10:43:12;;;;;;;4.20;3.40;;;14.90;96.60;;;15.44;84.71;96779.03;5097895;28;20439;-75
2022/04/23 10:45:41;;;;;;;4.50;3.67;;;14.90;96.20;;;15.49;84.19;96775.66;5098766;28;20839;-75
2022/04/23 10:48:49;;;;;;;4.13;3.63;;;15.00;96.20;;;15.58;83.77;96764.41;5098917;28;20476;-75
2022/04/23 10:51:21;;;;;;;4.17;3.67;;;15.00;96.10;;;15.63;82.91;96765.50;5098751;28;20789;-75